Time;durP1;ratioP1;P1;durP2;ratioP2;P2;SDS_P1;SDS_P2;PMS_P1;PMS_P2;Temp;Humidity;BMP_temperature;BMP_pressure;BME280_temperature;BME280_humidity;BME280_pressure;Samples;Min_cycle;Max_cycle;Signal;HPM_P1;HPM_P2
2021/12/28 00:01:20;;;;;;;1.80;1.20;;;7.40;99.90;;;;;;5016041;28;20198;-85
2021/12/28 00:03:47;;;;;;;6.65;1.70;;;7.50;99.90;;;;;;5022014;28;20230;-85
2021/12/28 00:06:15;;;;;;;2.10;1.50;;;7.50;99.90;;;;;;5021509;28;20272;-85
2021/12/28 00:08:44;;;;;;;3.47;2.08;;;7.50;99.90;;;;;;5019758;28;20247;-85
2021/12/28 00:11:12;;;;;;;3.40;2.05;;;7.50;99.90;;;;;;5023587;28;20200;-85
2021/12/28 00:13:40;;;;;;;2.38;1.80;;;7.50;99.90;;;;;;5022366;28;20223;-85
2021/12/28 00:19:03;;;;;;;2.92;1.60;;;7.40;99.90;;;;;;5019086;28;20281;-86
2021/12/28 00:21:30;;;;;;;2.35;1.50;;;7.40;99.90;;;;;;5021518;28;20206;-85
2021/12/28 00:24:01;;;;;;;2.55;1.35;;;7.30;99.90;;;;;;5021238;28;20206;-86
2021/12/28 00:26:28;;;;;;;4.85;1.38;;;7.30;99.90;;;;;;5019714;28;20267;-85
2021/12/28 00:28:55;;;;;;;1.80;1.65;;;7.40;99.90;;;;;;5029473;28;20237;-86
2021/12/28 00:31:24;;;;;;;3.40;1.65;;;7.30;99.90;;;;;;5047665;28;20195;-85
2021/12/28 00:33:52;;;;;;;1.77;1.50;;;7.30;99.90;;;;;;5043561;28;20223;-86
2021/12/28 00:36:19;;;;;;;4.88;1.42;;;7.40;99.90;;;;;;5035126;28;20195;-86
2021/12/28 00:38:51;;;;;;;5.78;2.97;;;7.40;99.90;;;;;;5021221;28;20280;-87
2021/12/28 00:41:28;;;;;;;4.55;1.80;;;7.40;99.90;;;;;;5020018;28;20187;-87
2021/12/28 00:43:55;;;;;;;3.22;2.30;;;7.30;99.90;;;;;;5021269;28;20665;-87
2021/12/28 00:46:22;;;;;;;5.15;1.52;;;7.30;99.90;;;;;;5038341;28;20217;-87
2021/12/28 00:48:48;;;;;;;6.10;2.60;;;7.30;99.90;;;;;;5040292;28;20230;-87
2021/12/28 00:51:16;;;;;;;7.30;2.42;;;7.30;99.90;;;;;;5022695;28;20211;-87
2021/12/28 00:53:42;;;;;;;2.55;2.30;;;7.20;99.90;;;;;;5021831;28;20261;-86
2021/12/28 00:56:09;;;;;;;11.68;2.92;;;7.30;99.90;;;;;;5039211;28;20202;-85
2021/12/28 00:58:37;;;;;;;3.20;2.35;;;7.20;99.90;;;;;;5040103;28;20222;-85
2021/12/28 01:01:07;;;;;;;4.22;1.73;;;7.20;99.90;;;;;;5040551;28;20206;-86
2021/12/28 01:03:44;;;;;;;3.53;1.85;;;7.20;99.90;;;;;;5042780;28;20768;-84
2021/12/28 01:06:13;;;;;;;6.32;2.30;;;7.20;99.90;;;;;;5023002;28;20199;-85
2021/12/28 01:08:40;;;;;;;3.13;2.05;;;7.20;99.90;;;;;;5034869;28;20233;-85
2021/12/28 01:11:07;;;;;;;5.40;2.72;;;7.20;99.90;;;;;;5018432;28;20203;-85
2021/12/28 01:13:34;;;;;;;3.88;2.10;;;7.30;99.90;;;;;;5016144;28;20235;-86
2021/12/28 01:16:06;;;;;;;4.65;1.92;;;7.30;99.90;;;;;;5033252;28;20614;-85
2021/12/28 01:18:33;;;;;;;3.00;1.60;;;7.30;99.90;;;;;;5034963;28;20230;-85
2021/12/28 01:21:01;;;;;;;3.17;1.60;;;7.30;99.90;;;;;;5015638;28;20203;-85
2021/12/28 01:23:28;;;;;;;4.78;1.75;;;7.20;99.90;;;;;;5016448;28;20199;-85
2021/12/28 01:25:56;;;;;;;3.67;1.40;;;7.30;99.90;;;;;;5016569;28;20211;-85
2021/12/28 01:28:22;;;;;;;6.43;2.13;;;7.30;99.90;;;;;;5023092;28;20234;-85
2021/12/28 01:30:49;;;;;;;2.05;1.70;;;7.30;99.90;;;;;;5036721;28;20675;-86
2021/12/28 01:33:22;;;;;;;3.47;3.17;;;7.20;99.90;;;;;;5031802;28;20219;-86
2021/12/28 01:35:50;;;;;;;4.82;2.05;;;7.20;99.90;;;;;;5019685;28;20203;-86
2021/12/28 01:38:17;;;;;;;3.47;1.60;;;7.10;99.90;;;;;;5017046;28;20246;-84
2021/12/28 01:40:44;;;;;;;8.57;2.00;;;7.10;99.90;;;;;;5018423;28;20211;-86
2021/12/28 01:43:17;;;;;;;2.33;2.13;;;7.20;99.90;;;;;;5041497;28;20202;-86
2021/12/28 01:45:47;;;;;;;3.80;1.80;;;7.20;99.90;;;;;;5042709;28;20778;-85
2021/12/28 01:48:20;;;;;;;7.63;3.67;;;7.20;99.90;;;;;;5032092;28;20227;-85
2021/12/28 01:50:47;;;;;;;7.15;1.95;;;7.20;99.90;;;;;;5020130;28;20584;-85
2021/12/28 01:53:15;;;;;;;3.65;3.20;;;7.30;99.90;;;;;;5020256;28;20231;-87
2021/12/28 01:55:44;;;;;;;7.03;1.95;;;7.20;99.90;;;;;;5020118;28;20215;-87
2021/12/28 01:58:11;;;;;;;6.40;2.47;;;7.20;99.90;;;;;;5021348;28;20227;-86
2021/12/28 02:00:40;;;;;;;6.25;3.80;;;7.20;99.90;;;;;;5030877;28;20206;-86
2021/12/28 02:03:08;;;;;;;6.03;2.30;;;7.30;99.90;;;;;;5037262;28;20248;-85
2021/12/28 02:05:37;;;;;;;5.00;1.80;;;7.20;99.90;;;;;;5024653;28;20203;-86
2021/12/28 02:08:04;;;;;;;5.15;1.70;;;7.20;99.90;;;;;;5022202;28;20255;-85
2021/12/28 02:10:31;;;;;;;3.75;2.15;;;7.20;99.90;;;;;;5036351;28;20701;-85
2021/12/28 02:12:58;;;;;;;4.07;2.40;;;7.10;99.90;;;;;;5038178;28;20222;-84
2021/12/28 02:15:28;;;;;;;3.92;2.53;;;7.10;99.90;;;;;;5021021;28;20211;-85
2021/12/28 02:17:55;;;;;;;2.42;2.22;;;7.10;99.90;;;;;;5018286;28;20238;-85
2021/12/28 02:20:23;;;;;;;5.43;2.00;;;7.00;99.90;;;;;;5033581;28;20202;-85
2021/12/28 02:22:50;;;;;;;3.70;2.13;;;7.00;99.90;;;;;;5037745;28;20202;-85
2021/12/28 02:25:19;;;;;;;5.35;2.40;;;7.00;99.90;;;;;;5037529;28;20202;-85
2021/12/28 02:27:46;;;;;;;9.90;2.85;;;7.00;99.90;;;;;;5037957;28;20218;-85
2021/12/28 02:30:16;;;;;;;8.13;3.70;;;7.00;99.90;;;;;;5024215;28;20230;-85
2021/12/28 02:32:46;;;;;;;5.65;1.73;;;6.90;99.90;;;;;;5017917;28;20226;-84
2021/12/28 02:35:20;;;;;;;2.75;2.55;;;7.00;99.90;;;;;;5031823;28;20203;-85
2021/12/28 02:37:48;;;;;;;3.70;2.15;;;6.90;99.90;;;;;;5037056;28;20206;-84
2021/12/28 02:40:18;;;;;;;3.85;2.10;;;6.90;99.90;;;;;;4996736;28;20215;-84
2021/12/28 02:42:45;;;;;;;7.97;2.22;;;6.90;99.90;;;;;;4995725;28;20234;-84
2021/12/28 02:45:25;;;;;;;5.72;3.15;;;6.80;99.90;;;;;;5034021;28;20534;-84
2021/12/28 02:47:52;;;;;;;4.05;2.85;;;6.80;99.90;;;;;;5034227;28;20186;-83
2021/12/28 02:50:28;;;;;;;6.03;2.95;;;6.80;99.90;;;;;;5034034;28;20217;-84
2021/12/28 02:52:56;;;;;;;3.85;2.58;;;6.80;99.90;;;;;;5033448;28;20603;-84
2021/12/28 02:55:34;;;;;;;5.88;3.00;;;6.80;99.90;;;;;;5019639;28;20210;-85
2021/12/28 02:58:03;;;;;;;3.25;2.40;;;6.80;99.90;;;;;;5014399;28;20249;-85
2021/12/28 03:00:35;;;;;;;4.95;2.35;;;6.80;99.90;;;;;;5013482;28;20646;-84
2021/12/28 03:03:06;;;;;;;4.30;2.10;;;6.80;99.90;;;;;;5017934;28;20265;-86
2021/12/28 03:05:36;;;;;;;3.35;2.40;;;6.80;99.90;;;;;;5018489;28;20210;-85
2021/12/28 03:08:05;;;;;;;2.78;1.50;;;6.80;99.90;;;;;;5023636;28;20639;-87
2021/12/28 03:10:35;;;;;;;5.40;2.05;;;6.80;99.90;;;;;;5024638;28;20203;-86
2021/12/28 03:13:02;;;;;;;7.40;2.65;;;6.80;99.90;;;;;;5028664;28;20225;-85
2021/12/28 03:15:28;;;;;;;3.95;2.30;;;6.90;99.90;;;;;;5039058;28;20210;-85
2021/12/28 03:17:55;;;;;;;6.35;2.03;;;6.90;99.90;;;;;;5033792;28;20261;-86
2021/12/28 03:20:23;;;;;;;6.93;2.35;;;6.90;99.90;;;;;;5019115;28;20206;-85
2021/12/28 03:22:51;;;;;;;4.60;2.22;;;6.90;99.90;;;;;;5022517;28;20199;-86
2021/12/28 03:25:21;;;;;;;4.53;2.15;;;6.90;99.90;;;;;;5038720;28;20289;-85
2021/12/28 03:27:48;;;;;;;3.85;2.05;;;6.90;99.90;;;;;;5035562;28;20219;-85
2021/12/28 03:30:16;;;;;;;3.20;2.55;;;6.90;99.90;;;;;;5018695;28;20203;-85
2021/12/28 03:32:44;;;;;;;4.63;2.22;;;7.00;99.90;;;;;;5018920;28;20230;-85
2021/12/28 03:35:13;;;;;;;3.83;1.90;;;7.00;99.90;;;;;;5017501;28;20218;-85
2021/12/28 03:37:49;;;;;;;8.18;3.25;;;7.00;99.90;;;;;;5032616;28;20241;-84
2021/12/28 03:40:17;;;;;;;4.55;2.00;;;7.00;99.90;;;;;;5037062;28;20711;-85
2021/12/28 03:42:48;;;;;;;5.28;2.40;;;7.00;99.90;;;;;;5022684;28;20202;-86
2021/12/28 03:45:14;;;;;;;4.38;2.53;;;7.00;99.90;;;;;;5017493;28;20746;-86
2021/12/28 03:47:43;;;;;;;2.67;2.47;;;7.00;99.90;;;;;;5032054;28;20206;-85
2021/12/28 03:50:14;;;;;;;5.88;2.15;;;7.00;99.90;;;;;;5037228;28;20218;-85
2021/12/28 03:52:42;;;;;;;4.55;2.60;;;7.00;99.90;;;;;;5022028;28;20207;-86
2021/12/28 03:55:16;;;;;;;6.60;2.45;;;7.00;99.90;;;;;;5018060;28;20237;-85
2021/12/28 03:57:47;;;;;;;6.10;1.73;;;7.00;99.90;;;;;;5017946;28;20684;-86
2021/12/28 06:16:34;;;;;;;2.35;2.20;;;7.60;99.90;;;;;;4966616;28;20833;-86
2021/12/28 06:19:39;;;;;;;2.30;2.10;;;7.60;99.90;;;;;;4974896;28;20236;-86
2021/12/28 06:22:10;;;;;;;2.13;1.70;;;7.60;99.90;;;;;;4974467;28;20255;-86
2021/12/28 06:24:40;;;;;;;1.40;1.30;;;7.60;99.90;;;;;;4955693;28;20224;-85
2021/12/28 06:27:09;;;;;;;1.50;1.40;;;7.70;99.90;;;;;;4956883;28;20228;-86
2021/12/28 06:29:40;;;;;;;3.65;1.50;;;7.70;99.90;;;;;;4955752;28;20312;-87
2021/12/28 06:32:12;;;;;;;2.85;1.45;;;7.70;99.90;;;;;;4939984;29;20220;-86
2021/12/28 06:34:39;;;;;;;2.80;1.00;;;7.70;99.90;;;;;;4982553;28;20239;-86
2021/12/28 06:37:06;;;;;;;3.45;1.38;;;7.70;99.90;;;;;;4999271;28;20191;-86
2021/12/28 06:39:33;;;;;;;1.73;1.35;;;7.70;99.90;;;;;;5000902;28;20232;-85
2021/12/28 06:42:00;;;;;;;1.92;1.20;;;7.60;99.90;;;;;;4999586;28;20218;-86
2021/12/28 06:44:28;;;;;;;2.38;2.17;;;7.60;99.90;;;;;;4996830;28;20200;-86
2021/12/28 06:46:55;;;;;;;3.45;1.55;;;7.60;99.90;;;;;;4998111;28;20210;-86
2021/12/28 06:49:21;;;;;;;1.25;1.10;;;7.70;99.90;;;;;;4998668;28;20675;-85
2021/12/28 06:51:48;;;;;;;1.98;1.35;;;7.70;99.90;;;;;;4998030;28;20700;-86
2021/12/28 06:54:16;;;;;;;1.13;1.02;;;7.60;99.90;;;;;;4999197;28;20693;-86
2021/12/28 06:56:43;;;;;;;1.08;0.80;;;7.70;99.90;;;;;;4998613;28;20295;-85
2021/12/28 06:59:10;;;;;;;1.17;0.90;;;7.70;99.90;;;;;;4997468;28;20747;-86
2021/12/28 07:01:38;;;;;;;0.75;0.70;;;7.60;99.90;;;;;;4997512;28;20211;-86
2021/12/28 07:04:05;;;;;;;0.65;0.65;;;7.60;99.90;;;;;;4998916;28;20218;-85
2021/12/28 07:06:31;;;;;;;0.95;0.77;;;7.70;99.90;;;;;;4997478;28;20200;-86
2021/12/28 07:08:58;;;;;;;0.80;0.80;;;7.70;99.90;;;;;;4997811;28;20231;-85
2021/12/28 07:11:25;;;;;;;1.67;0.95;;;7.80;99.90;;;;;;4998752;28;20208;-85
2021/12/28 07:13:52;;;;;;;0.70;0.70;;;7.80;99.90;;;;;;4998506;28;20230;-86
2021/12/28 07:16:19;;;;;;;1.20;1.10;;;7.90;99.90;;;;;;4998275;28;20226;-84
2021/12/28 07:18:47;;;;;;;1.88;0.85;;;7.90;99.90;;;;;;4998898;28;20230;-85
2021/12/28 07:21:14;;;;;;;1.55;1.40;;;7.90;99.90;;;;;;4998442;28;20204;-85
2021/12/28 07:23:41;;;;;;;1.27;0.90;;;7.90;99.90;;;;;;4998153;28;20275;-85
2021/12/28 07:26:08;;;;;;;0.70;0.70;;;8.00;99.90;;;;;;4998234;28;20219;-85
2021/12/28 07:28:34;;;;;;;0.82;0.82;;;8.00;99.90;;;;;;4999107;28;20297;-85
2021/12/28 07:31:01;;;;;;;1.05;1.05;;;8.10;99.90;;;;;;4998471;28;20208;-84
2021/12/28 07:33:28;;;;;;;0.88;0.75;;;8.10;99.90;;;;;;4998727;28;20262;-86
2021/12/28 07:35:56;;;;;;;1.38;0.50;;;8.20;99.90;;;;;;4998605;28;20230;-85
2021/12/28 07:38:23;;;;;;;0.70;0.70;;;8.10;99.90;;;;;;5000335;28;20215;-85
2021/12/28 07:40:49;;;;;;;0.80;0.80;;;8.30;99.90;;;;;;5000551;28;20294;-85
2021/12/28 07:43:16;;;;;;;0.60;0.60;;;8.20;99.90;;;;;;5001824;28;20579;-85
2021/12/28 07:45:43;;;;;;;0.40;0.40;;;8.20;99.90;;;;;;5002798;28;20210;-85
2021/12/28 07:48:10;;;;;;;0.60;0.60;;;8.20;99.90;;;;;;5014297;28;20212;-84
2021/12/28 07:50:37;;;;;;;0.52;0.52;;;8.20;99.90;;;;;;5013159;28;20208;-85
2021/12/28 07:53:05;;;;;;;0.93;0.88;;;8.30;99.90;;;;;;5002836;28;20223;-86
2021/12/28 07:55:31;;;;;;;1.05;0.60;;;8.30;99.90;;;;;;4998691;28;20238;-85
2021/12/28 07:57:58;;;;;;;0.70;0.70;;;8.30;99.90;;;;;;5002002;28;20214;-85
2021/12/28 08:00:25;;;;;;;0.70;0.70;;;8.40;99.90;;;;;;5000734;28;20604;-86
2021/12/28 08:02:53;;;;;;;0.50;0.50;;;8.50;99.90;;;;;;5001501;28;20207;-85
2021/12/28 08:05:19;;;;;;;0.40;0.40;;;8.50;99.90;;;;;;5001353;28;20199;-86
2021/12/28 08:07:46;;;;;;;0.50;0.50;;;8.50;99.90;;;;;;5002109;28;20298;-85
2021/12/28 08:10:16;;;;;;;0.43;0.43;;;8.60;99.90;;;;;;5002666;28;20258;-86
2021/12/28 08:12:43;;;;;;;0.50;0.50;;;8.50;99.90;;;;;;5001843;28;20215;-86
2021/12/28 08:15:11;;;;;;;1.52;0.60;;;8.50;99.90;;;;;;5001742;28;20234;-86
2021/12/28 08:17:38;;;;;;;1.75;1.65;;;8.50;99.90;;;;;;5003592;28;20287;-86
2021/12/28 08:20:06;;;;;;;0.70;0.70;;;8.60;99.90;;;;;;5003155;28;20235;-85
2021/12/28 08:22:33;;;;;;;0.40;0.40;;;8.60;99.90;;;;;;5003016;28;20215;-86
2021/12/28 08:25:00;;;;;;;0.47;0.47;;;8.60;99.90;;;;;;5003577;28;20204;-86
2021/12/28 08:27:28;;;;;;;0.55;0.40;;;8.60;99.90;;;;;;5003908;28;20211;-85
2021/12/28 08:29:56;;;;;;;0.30;0.30;;;8.60;99.90;;;;;;5004031;28;20236;-86
2021/12/28 08:32:22;;;;;;;0.90;0.90;;;8.60;99.90;;;;;;5003295;28;20212;-86
2021/12/28 08:34:49;;;;;;;0.50;0.50;;;8.70;99.90;;;;;;5004006;28;20230;-86
2021/12/28 08:37:16;;;;;;;0.63;0.60;;;8.70;99.90;;;;;;5004406;28;20208;-86
2021/12/28 08:39:43;;;;;;;0.70;0.70;;;8.80;99.90;;;;;;5003637;28;20228;-86
2021/12/28 08:42:10;;;;;;;1.67;1.58;;;8.80;99.90;;;;;;5003833;28;20592;-85
2021/12/28 08:44:38;;;;;;;0.40;0.40;;;8.90;99.90;;;;;;5002454;28;20540;-84
2021/12/28 08:47:05;;;;;;;0.57;0.50;;;8.80;99.90;;;;;;5002803;28;20205;-83
2021/12/28 08:49:32;;;;;;;0.40;0.40;;;8.90;99.90;;;;;;5002471;28;20224;-82
2021/12/28 08:51:59;;;;;;;0.45;0.40;;;9.00;99.90;;;;;;5000914;28;20212;-82
2021/12/28 08:54:25;;;;;;;0.40;0.40;;;9.10;99.90;;;;;;5000853;28;20227;-83
2021/12/28 08:56:53;;;;;;;0.50;0.50;;;9.20;99.90;;;;;;5001219;28;20214;-85
2021/12/28 08:59:20;;;;;;;0.30;0.30;;;9.20;99.90;;;;;;5000679;28;20228;-82
2021/12/28 09:01:49;;;;;;;0.40;0.38;;;9.20;99.90;;;;;;5000897;28;20681;-82
2021/12/28 09:04:16;;;;;;;0.40;0.35;;;9.30;99.90;;;;;;5000886;28;20204;-82
2021/12/28 09:07:29;;;;;;;0.68;0.20;;;9.30;99.90;;;;;;4999922;28;20204;-84
2021/12/28 09:10:00;;;;;;;1.15;0.50;;;9.40;99.90;;;;;;4999236;28;20228;-87
2021/12/28 09:12:27;;;;;;;0.40;0.40;;;9.40;99.90;;;;;;4998151;28;20203;-87
2021/12/28 09:14:54;;;;;;;0.30;0.30;;;9.30;99.90;;;;;;4999706;28;20237;-86
2021/12/28 09:17:22;;;;;;;0.93;0.47;;;9.40;99.90;;;;;;5000554;28;20208;-87
2021/12/28 09:19:49;;;;;;;0.65;0.63;;;9.40;99.90;;;;;;4995326;28;20224;-85
2021/12/28 09:22:15;;;;;;;1.17;0.90;;;9.40;99.90;;;;;;5005342;28;20213;-84
2021/12/28 09:24:42;;;;;;;0.60;0.57;;;9.40;99.90;;;;;;5004884;28;20299;-87
2021/12/28 09:27:09;;;;;;;0.60;0.60;;;9.60;99.90;;;;;;4994448;28;20200;-83
2021/12/28 09:29:37;;;;;;;0.43;0.43;;;9.60;99.90;;;;;;4990071;28;20232;-83
2021/12/28 09:32:04;;;;;;;0.95;0.40;;;9.60;99.90;;;;;;4994080;28;20663;-83
2021/12/28 09:35:10;;;;;;;0.40;0.40;;;9.80;99.90;;;;;;4999406;28;20235;-84
2021/12/28 09:37:38;;;;;;;2.13;0.47;;;9.90;99.90;;;;;;4995681;28;20240;-84
2021/12/28 09:40:09;;;;;;;0.60;0.60;;;10.00;99.90;;;;;;4999511;28;20232;-85
2021/12/28 09:42:36;;;;;;;0.50;0.50;;;9.90;99.90;;;;;;5000030;28;20212;-85
2021/12/28 09:45:04;;;;;;;0.40;0.40;;;10.00;99.90;;;;;;5002102;28;20224;-86
2021/12/28 09:47:35;;;;;;;0.50;0.50;;;9.80;99.90;;;;;;5001304;28;20213;-86
2021/12/28 09:50:02;;;;;;;0.65;0.63;;;9.80;99.90;;;;;;5000675;28;20230;-85
2021/12/28 09:52:29;;;;;;;0.47;0.47;;;10.00;99.90;;;;;;4989990;28;20246;-84
2021/12/28 09:54:57;;;;;;;1.55;1.08;;;10.10;99.90;;;;;;5001593;28;20232;-84
2021/12/28 09:57:24;;;;;;;0.40;0.40;;;10.10;99.90;;;;;;4999968;28;20202;-84
2021/12/28 09:59:51;;;;;;;0.40;0.40;;;10.20;99.90;;;;;;5025109;23;20245;-83
2021/12/28 10:02:18;;;;;;;1.10;0.95;;;10.30;99.90;;;;;;4997653;28;20214;-83
2021/12/28 10:04:58;;;;;;;0.50;0.50;;;10.30;99.90;;;;;;4996986;28;20209;-83
2021/12/28 10:07:26;;;;;;;1.20;1.00;;;10.30;99.90;;;;;;4996901;28;20217;-82
2021/12/28 10:09:54;;;;;;;6.03;4.47;;;10.30;99.90;;;;;;4993893;28;20273;-82
2021/12/28 10:12:30;;;;;;;0.63;0.60;;;10.30;99.90;;;;;;4975845;28;20203;-82
2021/12/28 10:15:00;;;;;;;0.60;0.60;;;10.30;99.90;;;;;;4975743;28;20216;-82
2021/12/28 10:17:28;;;;;;;1.80;1.70;;;10.40;99.90;;;;;;4973835;28;20579;-82
2021/12/28 10:19:56;;;;;;;1.83;1.38;;;10.50;99.90;;;;;;4969495;28;20738;-82
2021/12/28 10:22:27;;;;;;;1.10;1.10;;;10.50;99.90;;;;;;4957216;29;20618;-82
2021/12/28 10:24:57;;;;;;;1.77;0.93;;;10.50;99.90;;;;;;4961476;28;20535;-82
2021/12/28 10:27:26;;;;;;;0.70;0.70;;;10.40;99.90;;;;;;4958188;28;20855;-81
2021/12/28 10:29:55;;;;;;;1.02;0.80;;;10.30;99.90;;;;;;4970671;28;20225;-83
2021/12/28 10:32:24;;;;;;;0.70;0.70;;;10.30;99.90;;;;;;4997152;28;20285;-82
2021/12/28 10:34:53;;;;;;;0.40;0.40;;;10.30;99.90;;;;;;4981230;28;20221;-83
2021/12/28 10:37:39;;;;;;;0.60;0.60;;;10.40;99.90;;;;;;4980981;28;20210;-83
2021/12/28 10:40:22;;;;;;;0.80;0.40;;;10.50;99.90;;;;;;4988686;28;20283;-85
2021/12/28 10:43:09;;;;;;;0.73;0.73;;;10.60;99.90;;;;;;4973463;28;20543;-84
2021/12/28 10:45:40;;;;;;;0.47;0.47;;;10.80;99.90;;;;;;4979467;28;20261;-84
2021/12/28 10:48:15;;;;;;;0.60;0.60;;;11.00;99.90;;;;;;4982089;28;20454;-84
2021/12/28 10:50:55;;;;;;;0.50;0.50;;;10.90;99.90;;;;;;5087043;23;20594;-83
2021/12/28 11:07:56;;;;;;;0.60;0.60;;;11.50;99.90;;;;;;4772756;29;20463;-82
2021/12/28 11:14:04;;;;;;;0.43;0.43;;;12.50;99.90;;;;;;4996363;28;20471;-84
2021/12/28 11:16:39;;;;;;;0.45;0.45;;;12.20;99.90;;;;;;5017696;28;20502;-84
2021/12/28 11:19:08;;;;;;;0.80;0.80;;;12.10;99.90;;;;;;5014263;28;20653;-85
2021/12/28 11:21:53;;;;;;;0.40;0.40;;;12.10;99.90;;;;;;5027851;28;20460;-83
2021/12/28 11:24:58;;;;;;;0.70;0.70;;;12.20;99.90;;;;;;5018512;28;20471;-82
2021/12/28 11:27:30;;;;;;;0.63;0.60;;;12.20;99.90;;;;;;5024961;28;20503;-83
2021/12/28 11:34:04;;;;;;;1.00;0.90;;;12.30;99.90;;;;;;4979672;28;20449;-83
2021/12/28 11:36:40;;;;;;;0.70;0.70;;;12.20;99.90;;;;;;4961853;28;20572;-81
2021/12/28 11:41:48;;;;;;;0.53;0.50;;;12.20;99.90;;;;;;4895276;26;20476;-82
2021/12/28 11:44:55;;;;;;;0.67;0.43;;;12.20;99.90;;;;;;5025142;28;20469;-85
2021/12/28 11:51:01;;;;;;;0.73;0.53;;;12.10;99.90;;;;;;4943902;28;20494;-85
2021/12/28 12:07:44;;;;;;;0.50;0.50;;;11.70;99.90;;;;;;4965248;28;20571;-85
2021/12/28 12:26:27;;;;;;;;;;;;;;;;;;;;;
2021/12/28 12:46:28;;;;;;;0.50;0.50;;;11.60;99.90;;;;;;4849725;29;20455;-83
2021/12/28 12:49:13;;;;;;;0.90;0.90;;;11.60;99.90;;;;;;4900739;29;20464;-83
2021/12/28 12:52:05;;;;;;;0.53;0.50;;;11.60;99.90;;;;;;4957736;29;20459;-83
2021/12/28 12:54:41;;;;;;;1.03;0.80;;;11.60;99.90;;;;;;5003681;28;20649;-82
2021/12/28 12:57:27;;;;;;;0.77;0.60;;;11.50;99.90;;;;;;5010096;28;20464;-82
2021/12/28 13:00:00;;;;;;;0.53;0.53;;;11.40;99.90;;;;;;5009030;28;20468;-83
2021/12/28 13:02:41;;;;;;;1.27;1.10;;;11.40;99.90;;;;;;5008272;28;20438;-82
2021/12/28 13:05:17;;;;;;;1.30;0.73;;;11.50;99.90;;;;;;5007385;28;20448;-83
2021/12/28 13:07:45;;;;;;;0.80;0.67;;;11.40;99.90;;;;;;5007631;28;20452;-82
2021/12/28 13:10:18;;;;;;;0.50;0.50;;;11.40;99.90;;;;;;5009363;28;20465;-82
2021/12/28 13:12:53;;;;;;;0.73;0.50;;;11.40;99.90;;;;;;5009487;28;20466;-83
2021/12/28 13:15:21;;;;;;;0.40;0.30;;;11.40;99.90;;;;;;5008533;28;20905;-82
2021/12/28 13:17:49;;;;;;;0.50;0.50;;;11.30;99.90;;;;;;5008136;28;20457;-82
2021/12/28 13:20:19;;;;;;;0.53;0.53;;;11.40;99.90;;;;;;5004631;28;20480;-83
2021/12/28 13:22:50;;;;;;;0.60;0.43;;;11.40;99.90;;;;;;5006767;28;20815;-81
2021/12/28 13:25:22;;;;;;;1.07;0.50;;;11.30;99.90;;;;;;5001510;28;20497;-84
2021/12/28 13:27:49;;;;;;;3.50;0.60;;;11.40;99.90;;;;;;5001102;28;20461;-84
2021/12/28 13:30:21;;;;;;;1.20;0.63;;;11.40;99.90;;;;;;5000215;28;20485;-84
2021/12/28 13:32:54;;;;;;;0.40;0.40;;;11.40;99.90;;;;;;5001213;28;20516;-83
2021/12/28 13:35:26;;;;;;;1.90;0.87;;;11.40;99.90;;;;;;5001330;28;20474;-84
2021/12/28 13:37:57;;;;;;;0.67;0.67;;;11.40;99.90;;;;;;5001420;28;20488;-84
2021/12/28 13:40:27;;;;;;;0.52;0.52;;;11.40;99.90;;;;;;5000141;28;20531;-84
2021/12/28 13:43:07;;;;;;;1.27;0.43;;;11.40;99.90;;;;;;5001505;28;20214;-83
2021/12/28 13:45:36;;;;;;;0.67;0.50;;;11.40;99.90;;;;;;5000972;28;20440;-83
2021/12/28 13:48:12;;;;;;;0.50;0.50;;;11.30;99.90;;;;;;5000992;28;20457;-84
2021/12/28 13:50:39;;;;;;;0.73;0.70;;;11.40;99.90;;;;;;5000888;28;20489;-84
2021/12/28 13:53:12;;;;;;;0.70;0.70;;;11.20;99.90;;;;;;5001627;28;20449;-84
2021/12/28 13:55:39;;;;;;;1.43;0.80;;;11.10;99.90;;;;;;5000397;28;20493;-84
2021/12/28 13:58:20;;;;;;;0.43;0.43;;;11.00;99.90;;;;;;5000412;28;20487;-84
2021/12/28 14:00:50;;;;;;;2.15;1.20;;;10.90;99.90;;;;;;5000351;28;20279;-84
2021/12/28 14:03:21;;;;;;;1.15;0.85;;;10.90;99.90;;;;;;5000690;28;20269;-84
2021/12/28 14:05:49;;;;;;;0.77;0.57;;;10.80;99.90;;;;;;5000808;28;20205;-84
2021/12/28 14:08:17;;;;;;;1.17;1.08;;;10.80;99.90;;;;;;4999946;28;20209;-83
2021/12/28 14:10:44;;;;;;;1.80;1.00;;;10.80;99.90;;;;;;5000018;28;20281;-83
2021/12/28 14:13:13;;;;;;;0.77;0.77;;;10.80;99.90;;;;;;5001005;28;20453;-83
2021/12/28 14:15:48;;;;;;;1.63;1.17;;;10.80;99.90;;;;;;5000241;28;20638;-85
2021/12/28 14:18:32;;;;;;;2.50;1.60;;;10.90;99.90;;;;;;5000683;28;20461;-83
2021/12/28 14:21:15;;;;;;;1.93;1.23;;;10.90;99.90;;;;;;5000177;28;20986;-84
2021/12/28 14:23:43;;;;;;;1.65;0.95;;;11.00;99.90;;;;;;5007215;28;20429;-84
2021/12/28 14:26:13;;;;;;;0.73;0.60;;;10.90;99.90;;;;;;5002789;28;20218;-84
2021/12/28 14:28:41;;;;;;;0.80;0.70;;;11.00;99.90;;;;;;5000736;28;20517;-82
2021/12/28 14:31:18;;;;;;;1.00;1.00;;;10.90;99.90;;;;;;5001322;28;20673;-84
2021/12/28 14:33:55;;;;;;;0.60;0.60;;;10.90;99.90;;;;;;5000035;28;20210;-84
2021/12/28 14:36:31;;;;;;;1.13;1.13;;;10.90;99.90;;;;;;4999767;28;20491;-84
2021/12/28 14:39:16;;;;;;;1.00;1.00;;;10.80;99.90;;;;;;4998603;28;20475;-84
2021/12/28 14:41:46;;;;;;;0.60;0.60;;;10.70;99.90;;;;;;5000073;28;20438;-83
2021/12/28 14:44:22;;;;;;;0.65;0.65;;;10.70;99.90;;;;;;5000571;28;20261;-84
2021/12/28 14:46:51;;;;;;;0.70;0.70;;;10.70;99.90;;;;;;5000222;28;20670;-83
2021/12/28 14:49:23;;;;;;;1.00;1.00;;;10.70;99.90;;;;;;5000536;28;20479;-83
2021/12/28 14:51:50;;;;;;;1.20;1.10;;;10.60;99.90;;;;;;5002037;28;20844;-84
2021/12/28 14:54:19;;;;;;;1.85;0.95;;;10.60;99.90;;;;;;5002265;28;20452;-84
2021/12/28 14:56:47;;;;;;;0.90;0.90;;;10.60;99.90;;;;;;5002265;28;20225;-84
2021/12/28 14:59:20;;;;;;;4.15;1.80;;;10.50;99.90;;;;;;5000329;28;20221;-86
2021/12/28 15:02:05;;;;;;;1.85;1.45;;;10.50;99.90;;;;;;4991938;28;20659;-84
2021/12/28 15:05:40;;;;;;;;;;;;;;;;;;;;;
2021/12/28 15:11:18;;;;;;;1.50;0.77;;;10.30;99.90;;;;;;5110819;22;20615;-82
2021/12/28 15:21:54;;;;;;;1.38;1.27;;;10.00;99.90;;;;;;4940727;29;20228;-85
2021/12/28 15:28:44;;;;;;;0.30;0.30;;;9.00;99.90;;;;;;4899065;29;20213;-83
2021/12/28 15:49:23;;;;;;;0.88;0.50;;;7.10;99.90;;;;;;4804770;29;20218;-82
2021/12/28 15:55:22;;;;;;;1.23;0.77;;;7.00;99.90;;;;;;4766018;29;20269;-82
2021/12/28 15:57:52;;;;;;;1.85;1.13;;;7.10;99.90;;;;;;4795847;29;20242;-82
2021/12/28 16:00:34;;;;;;;;;;;;;;;;;;;;;
2021/12/28 16:03:01;;;;;;;4.35;0.60;;;7.10;99.90;;;;;;4943395;29;20206;-84
2021/12/28 16:08:13;;;;;;;3.95;1.10;;;7.00;99.90;;;;;;4955904;28;20209;-85
2021/12/28 16:10:40;;;;;;;1.70;1.40;;;7.00;99.90;;;;;;5025325;28;20707;-85
2021/12/28 16:13:08;;;;;;;1.83;1.35;;;6.90;99.90;;;;;;5021035;28;20207;-85
2021/12/28 16:15:35;;;;;;;1.38;1.00;;;6.90;99.90;;;;;;5019134;28;20214;-85
2021/12/28 16:18:01;;;;;;;1.35;1.25;;;6.90;99.90;;;;;;5023420;28;20246;-87
2021/12/28 16:20:28;;;;;;;2.53;2.08;;;6.90;99.90;;;;;;5043904;28;20226;-85
2021/12/28 16:22:55;;;;;;;1.10;1.08;;;6.90;99.90;;;;;;5043340;28;20221;-86
2021/12/28 16:25:24;;;;;;;1.05;0.95;;;6.90;99.90;;;;;;5041904;28;20203;-84
2021/12/28 16:27:50;;;;;;;2.22;1.13;;;6.80;99.90;;;;;;5041799;28;20230;-84
2021/12/28 16:30:25;;;;;;;3.15;1.05;;;6.80;99.90;;;;;;5043415;28;20237;-86
2021/12/28 16:32:52;;;;;;;1.33;1.10;;;6.70;99.90;;;;;;5003597;28;20211;-85
2021/12/28 16:35:19;;;;;;;4.60;1.80;;;6.70;99.90;;;;;;5003920;28;20219;-85
2021/12/28 16:37:46;;;;;;;2.25;0.93;;;6.60;99.90;;;;;;5024572;28;20250;-86
2021/12/28 16:40:13;;;;;;;0.85;0.85;;;6.60;99.90;;;;;;5023538;28;20227;-86
2021/12/28 16:42:41;;;;;;;1.20;0.80;;;6.60;99.90;;;;;;5023660;28;20199;-85
2021/12/28 16:45:11;;;;;;;0.55;0.40;;;6.40;99.90;;;;;;5032023;28;20208;-86
2021/12/28 16:47:53;;;;;;;0.30;0.30;;;6.30;99.90;;;;;;5028702;28;20282;-86
2021/12/28 16:50:25;;;;;;;0.40;0.40;;;6.30;99.90;;;;;;5015803;28;20222;-85
2021/12/28 16:52:53;;;;;;;0.50;0.50;;;6.20;99.90;;;;;;5022276;28;20202;-86
2021/12/28 16:55:20;;;;;;;3.25;0.70;;;6.10;99.90;;;;;;5034768;28;20202;-86
2021/12/28 16:57:50;;;;;;;0.50;0.50;;;6.20;99.90;;;;;;5041407;28;20246;-86
2021/12/28 17:00:19;;;;;;;1.65;0.60;;;6.10;99.90;;;;;;5041582;28;20312;-86
2021/12/28 17:02:45;;;;;;;3.42;0.68;;;6.10;99.90;;;;;;5041260;28;20206;-86
2021/12/28 17:05:12;;;;;;;0.40;0.38;;;6.00;99.90;;;;;;5040460;28;20194;-86
2021/12/28 17:07:39;;;;;;;0.68;0.68;;;6.00;99.90;;;;;;5040200;28;20210;-86
2021/12/28 17:10:07;;;;;;;4.00;0.40;;;6.00;99.90;;;;;;5040193;28;20232;-86
2021/12/28 17:12:34;;;;;;;1.00;0.50;;;6.00;99.90;;;;;;5040927;28;20207;-85
2021/12/28 17:15:04;;;;;;;0.40;0.40;;;5.90;99.90;;;;;;5039591;28;20301;-86
2021/12/28 17:17:32;;;;;;;0.40;0.40;;;6.00;99.90;;;;;;5040867;28;20245;-86
2021/12/28 17:19:59;;;;;;;0.40;0.40;;;6.00;99.90;;;;;;5029452;28;20226;-86
2021/12/28 17:22:25;;;;;;;0.50;0.50;;;6.00;99.90;;;;;;5020958;28;20233;-85
2021/12/28 17:25:04;;;;;;;0.75;0.40;;;6.00;99.90;;;;;;5031664;28;20202;-85
2021/12/28 17:27:31;;;;;;;4.60;0.90;;;6.10;99.90;;;;;;5040957;28;20196;-85
2021/12/28 17:29:58;;;;;;;0.50;0.50;;;6.20;99.90;;;;;;5039184;28;20230;-85